Time;durP1;ratioP1;P1;durP2;ratioP2;P2;SDS_P1;SDS_P2;PMS_P1;PMS_P2;Temp;Humidity;BMP_temperature;BMP_pressure;BME280_temperature;BME280_humidity;BME280_pressure;Samples;Min_cycle;Max_cycle;Signal;HPM_P1;HPM_P2
2021/12/16 00:04:46;;;;;;;0.45;0.45;;;10.50;95.60;9.40;103295.00;;;;30685360;28;20059;-76
2021/12/16 00:34:40;;;;;;;0.30;0.30;;;10.40;95.70;9.30;103310.00;;;;30739806;28;20101;-77
2021/12/16 00:49:47;;;;;;;0.20;0.20;;;10.30;95.20;9.20;103302.00;;;;30774319;28;20086;-77
2021/12/16 01:05:10;;;;;;;0.45;0.45;;;10.30;95.70;9.20;103289.00;;;;30658890;28;20550;-77
2021/12/16 01:36:13;;;;;;;0.63;0.63;;;10.10;95.90;9.10;103336.00;;;;30707795;28;20623;-77
2021/12/16 01:51:22;;;;;;;0.20;0.20;;;10.10;95.30;9.00;103338.00;;;;30690579;28;20046;-77
2021/12/16 02:37:02;;;;;;;0.20;0.20;;;10.10;96.00;9.00;103370.00;;;;30684645;28;20047;-77
2021/12/16 02:52:05;;;;;;;0.20;0.20;;;10.10;95.40;9.00;103357.00;;;;30712033;28;20565;-76
2021/12/16 03:07:09;;;;;;;0.20;0.20;;;10.00;96.00;9.00;103352.00;;;;30755082;28;20058;-77
2021/12/16 03:22:24;;;;;;;0.10;0.10;;;10.00;95.60;9.00;103352.00;;;;30742067;28;20114;-77
2021/12/16 03:37:42;;;;;;;0.30;0.27;;;10.00;96.00;8.90;103356.00;;;;30811299;28;20038;-77
2021/12/16 03:53:03;;;;;;;0.30;0.30;;;9.90;96.30;8.70;103363.00;;;;30793220;28;20047;-77
2021/12/16 04:08:07;;;;;;;0.95;0.95;;;9.50;95.90;8.40;103380.00;;;;30789393;28;20043;-76
2021/12/16 04:23:29;;;;;;;0.20;0.20;;;9.50;96.00;8.20;103361.00;;;;30794833;28;20046;-77
2021/12/16 04:38:30;;;;;;;0.63;0.63;;;9.30;96.20;8.00;103364.00;;;;30792945;28;20137;-77
2021/12/16 04:53:34;;;;;;;0.20;0.20;;;9.10;95.10;7.80;103378.00;;;;30722097;28;20600;-77
2021/12/16 05:08:37;;;;;;;0.93;0.93;;;8.60;95.10;7.50;103376.00;;;;30743317;28;20070;-77
2021/12/16 05:39:06;;;;;;;0.25;0.25;;;8.60;95.60;7.30;103393.00;;;;30700420;28;20047;-78
2021/12/16 05:54:19;;;;;;;0.20;0.20;;;8.50;95.30;7.30;103419.00;;;;30737117;28;20050;-77
2021/12/16 06:09:44;;;;;;;0.15;0.15;;;8.50;95.70;7.30;103432.00;;;;30722355;28;20135;-77
2021/12/16 06:40:08;;;;;;;0.20;0.20;;;8.60;96.50;7.60;103453.00;;;;30712716;28;20559;-77
2021/12/16 06:55:42;;;;;;;0.20;0.20;;;8.80;96.50;7.70;103456.00;;;;30755529;28;20138;-77
2021/12/16 07:10:47;;;;;;;0.30;0.30;;;8.80;96.60;7.70;103480.00;;;;30782748;28;20117;-77
2021/12/16 07:25:48;;;;;;;0.10;0.10;;;8.80;97.10;7.70;103521.00;;;;30756242;28;20598;-77
2021/12/16 07:40:52;;;;;;;0.30;0.30;;;8.80;97.30;7.70;103544.00;;;;30733652;28;20047;-77
2021/12/16 07:55:55;;;;;;;0.20;0.20;;;8.80;97.20;7.70;103563.00;;;;30748253;28;20295;-77
2021/12/16 08:10:56;;;;;;;0.20;0.20;;;8.80;96.90;7.70;103588.00;;;;30713209;28;20051;-77
2021/12/16 08:25:57;;;;;;;0.15;0.15;;;8.80;97.20;7.80;103597.00;;;;30751572;28;20179;-78
2021/12/16 08:41:12;;;;;;;0.30;0.30;;;8.80;97.10;7.90;103611.00;;;;30740703;28;20458;-78
2021/12/16 08:56:15;;;;;;;0.20;0.20;;;9.00;96.50;7.90;103624.00;;;;30656068;28;20055;-78
2021/12/16 09:11:21;;;;;;;0.20;0.20;;;9.10;96.50;8.00;103639.00;;;;30771200;28;20483;-78
2021/12/16 09:26:24;;;;;;;0.20;0.20;;;9.00;96.70;8.00;103656.00;;;;30745559;28;20074;-78
2021/12/16 09:41:28;;;;;;;0.20;0.20;;;9.10;97.00;8.00;103657.00;;;;30695594;28;20400;-78
2021/12/16 09:56:31;;;;;;;0.23;0.23;;;9.10;96.50;8.10;103654.00;;;;30724483;28;20075;-78
2021/12/16 10:11:37;;;;;;;0.15;0.15;;;9.20;96.30;8.10;103658.00;;;;30708976;28;20854;-78
2021/12/16 10:26:38;;;;;;;;;;;9.20;96.70;8.00;103658.00;;;;30764659;28;20061;-78
2021/12/16 10:48:32;;;;;;;0.22;0.22;;;9.10;96.60;8.00;103687.00;;;;31186720;28;20447;-77
2021/12/16 11:03:43;;;;;;;0.35;0.35;;;9.10;97.10;8.30;103693.00;;;;31047008;28;20569;-77
2021/12/16 11:18:46;;;;;;;0.10;0.10;;;9.40;96.30;8.50;103682.00;;;;31041481;28;20693;-77
2021/12/16 11:33:52;;;;;;;0.17;0.17;;;9.60;96.60;8.50;103677.00;;;;31039206;28;20259;-77
2021/12/16 11:49:00;;;;;;;0.20;0.20;;;9.70;96.00;8.60;103661.00;;;;30998032;28;20550;-77
2021/12/16 12:04:06;;;;;;;0.22;0.22;;;9.70;96.40;8.70;103657.00;;;;30954174;28;20046;-77
2021/12/16 12:19:24;;;;;;;0.20;0.20;;;9.70;95.70;8.70;103665.00;;;;30964742;28;20041;-77
2021/12/16 12:34:26;;;;;;;0.30;0.30;;;9.80;96.30;8.70;103673.00;;;;30929537;28;20053;-77
2021/12/16 12:49:30;;;;;;;0.10;0.10;;;9.70;95.90;8.50;103676.00;;;;30949735;28;20141;-77
2021/12/16 13:04:49;;;;;;;0.27;0.27;;;9.60;96.60;8.50;103658.00;;;;30940732;28;20038;-77
2021/12/16 14:52:26;;;;;;;0.20;0.20;;;10.10;96.30;9.00;103704.00;;;;30930516;28;20092;-77
2021/12/16 15:07:29;;;;;;;0.20;0.20;;;10.10;96.60;8.90;103706.00;;;;30943796;28;20474;-77
2021/12/16 15:53:17;;;;;;;0.20;0.20;;;9.70;96.40;8.60;103728.00;;;;30956755;28;20046;-77
2021/12/16 16:08:21;;;;;;;0.30;0.30;;;9.70;96.30;8.60;103737.00;;;;30959170;28;20047;-76
2021/12/16 16:23:24;;;;;;;0.30;0.30;;;10.00;96.80;8.50;103755.00;;;;30913776;28;20066;-76
2021/12/16 16:38:32;;;;;;;0.20;0.20;;;9.60;96.50;8.50;103767.00;;;;30919534;28;20049;-76
2021/12/16 16:53:55;;;;;;;0.20;0.20;;;9.60;96.20;8.50;103778.00;;;;30903640;28;20062;-76
2021/12/16 17:08:58;;;;;;;0.20;0.20;;;9.50;96.20;8.40;103773.00;;;;30894557;28;20092;-77
2021/12/16 17:24:05;;;;;;;1.25;1.13;;;9.50;96.70;8.40;103783.00;;;;30914274;28;20503;-77
2021/12/16 17:39:12;;;;;;;0.20;0.20;;;9.60;96.60;8.30;103794.00;;;;30913677;28;20074;-76
2021/12/16 17:54:14;;;;;;;0.20;0.20;;;9.40;96.50;8.30;103795.00;;;;30907149;28;20057;-77
2021/12/16 18:09:25;;;;;;;0.25;0.25;;;9.40;96.70;8.40;103815.00;;;;30904882;28;20050;-76
2021/12/16 18:24:40;;;;;;;0.22;0.22;;;9.40;97.00;8.40;103821.00;;;;30905047;28;20141;-75
2021/12/16 18:39:49;;;;;;;0.50;0.50;;;9.50;96.90;8.40;103817.00;;;;30907340;28;20051;-75
2021/12/16 18:54:50;;;;;;;0.20;0.20;;;9.50;96.50;8.40;103834.00;;;;30893350;28;20116;-77
2021/12/16 19:09:54;;;;;;;0.20;0.20;;;9.50;96.30;8.40;103830.00;;;;30919323;28;20050;-75
2021/12/16 19:24:57;;;;;;;0.20;0.20;;;9.50;96.70;8.40;103834.00;;;;30910319;28;20046;-76
2021/12/16 19:40:03;;;;;;;0.20;0.20;;;9.50;96.70;8.40;103839.00;;;;30913170;28;20054;-76
2021/12/16 19:55:05;;;;;;;0.20;0.20;;;9.50;96.30;8.40;103847.00;;;;30885204;28;20469;-76
2021/12/16 20:10:14;;;;;;;0.20;0.20;;;9.50;96.20;8.40;103887.00;;;;30901349;28;21307;-77
2021/12/16 20:25:24;;;;;;;0.22;0.22;;;9.50;96.70;8.40;103895.00;;;;30907984;28;20100;-77
2021/12/16 20:40:34;;;;;;;0.30;0.30;;;9.60;96.80;8.50;103883.00;;;;30900788;28;20043;-76
2021/12/16 20:55:37;;;;;;;0.20;0.20;;;9.50;96.30;8.50;103884.00;;;;30904550;28;20148;-77
2021/12/16 21:10:39;;;;;;;0.20;0.20;;;9.60;96.60;8.50;103898.00;;;;30883436;28;20050;-77
2021/12/16 21:25:42;;;;;;;0.20;0.20;;;9.60;96.80;8.60;103890.00;;;;30902961;28;20042;-77
2021/12/16 21:40:44;;;;;;;0.20;0.20;;;9.50;96.80;8.40;103879.00;;;;30900774;28;20680;-77
2021/12/16 21:55:46;;;;;;;0.10;0.10;;;9.50;96.60;8.40;103887.00;;;;30899718;28;20081;-77
2021/12/16 22:10:49;;;;;;;0.20;0.20;;;9.50;96.60;8.40;103882.00;;;;30878096;28;20679;-76
2021/12/16 22:25:51;;;;;;;0.20;0.20;;;9.50;97.10;8.40;103893.00;;;;30865764;28;20055;-78
2021/12/16 22:40:55;;;;;;;0.20;0.20;;;9.70;97.10;8.40;103894.00;;;;30915811;28;20039;-76
2021/12/16 22:55:56;;;;;;;0.20;0.20;;;9.50;96.50;8.30;103903.00;;;;30942643;28;20042;-76
2021/12/16 23:10:58;;;;;;;0.20;0.20;;;9.40;96.20;8.20;103897.00;;;;30939824;28;20043;-75
2021/12/16 23:26:00;;;;;;;0.30;0.30;;;9.40;96.50;8.10;103894.00;;;;30915767;28;20038;-75
2021/12/16 23:41:16;;;;;;;0.20;0.20;;;9.20;96.50;8.20;103888.00;;;;30934311;28;20399;-75
2021/12/16 23:56:18;;;;;;;0.20;0.20;;;9.30;96.10;8.20;103882.00;;;;30940856;28;20571;-77
